Time;durP1;ratioP1;P1;durP2;ratioP2;P2;SDS_P1;SDS_P2;PMS_P1;PMS_P2;Temp;Humidity;BMP_temperature;BMP_pressure;BME280_temperature;BME280_humidity;BME280_pressure;Samples;Min_cycle;Max_cycle;Signal;HPM_P1;HPM_P2
2023/10/15 00:00:59;;;;;;;5.18;1.08;;;;;;;8.49;82.07;100899.44;4862389;29;20047;-72
2023/10/15 00:04:03;;;;;;;6.68;1.42;;;;;;;8.50;81.94;100898.53;4862367;29;20101;-72
2023/10/15 00:07:06;;;;;;;6.03;1.58;;;;;;;8.52;81.92;100891.50;4862191;29;20467;-72
2023/10/15 00:10:18;;;;;;;8.68;1.20;;;;;;;8.48;81.63;100897.72;4862006;29;20110;-73
2023/10/15 00:13:22;;;;;;;6.07;1.40;;;;;;;8.40;81.46;100893.72;4861399;29;20060;-73
2023/10/15 00:16:25;;;;;;;6.00;1.65;;;;;;;8.44;81.13;100898.75;4862336;29;20080;-73
2023/10/15 00:19:29;;;;;;;5.13;1.48;;;;;;;8.33;81.52;100899.13;4861936;29;20053;-73
2023/10/15 00:22:35;;;;;;;4.90;1.20;;;;;;;8.21;82.17;100893.50;4861935;29;20142;-72
2023/10/15 00:25:41;;;;;;;9.15;2.00;;;;;;;8.19;82.27;100896.16;4862151;29;20056;-73
2023/10/15 00:28:45;;;;;;;6.13;1.40;;;;;;;8.15;82.29;100903.25;4861808;29;20196;-73
2023/10/15 00:31:48;;;;;;;;;;;;;;;8.09;83.01;100894.81;4850887;29;20060;-72
2023/10/15 00:34:53;;;;;;;3.90;1.10;;;;;;;8.12;82.62;100892.94;4862015;29;19926;-72
2023/10/15 00:37:56;;;;;;;;;;;;;;;7.99;82.97;100896.88;4862110;29;20053;-73
2023/10/15 00:41:07;;;;;;;4.20;1.15;;;;;;;8.02;82.36;100886.38;4861618;29;19980;-73
2023/10/15 00:44:10;;;;;;;7.35;1.80;;;;;;;8.03;82.99;100882.00;4861846;29;20119;-73
2023/10/15 00:47:15;;;;;;;;;;;;;;;8.03;82.34;100888.06;4861917;29;20048;-72
2023/10/15 00:50:19;;;;;;;8.13;1.20;;;;;;;8.00;82.35;100882.94;4850058;29;19938;-72
2023/10/15 00:53:26;;;;;;;11.40;3.08;;;;;;;7.99;82.42;100881.25;4850171;29;20614;-72
2023/10/15 00:56:39;;;;;;;7.78;1.50;;;;;;;7.95;82.15;100890.09;4849864;29;20071;-72
2023/10/15 00:59:48;;;;;;;4.47;1.00;;;;;;;7.88;82.09;100884.25;4861330;29;20064;-72
2023/10/15 01:02:51;;;;;;;6.47;1.52;;;;;;;7.97;82.17;100877.84;4849863;29;20170;-72
2023/10/15 01:05:54;;;;;;;7.75;1.48;;;;;;;7.90;82.39;100876.38;4849979;29;20112;-72
2023/10/15 01:08:59;;;;;;;;;;;;;;;7.95;81.94;100876.22;4861694;29;20135;-73
2023/10/15 01:12:25;;;;;;;;;;;;;;;7.85;81.75;100879.16;4850220;29;19926;-73
2023/10/15 01:15:30;;;;;;;5.93;2.05;;;;;;;7.82;82.03;100863.66;4861058;29;19938;-73
2023/10/15 01:18:34;;;;;;;5.72;1.30;;;;;;;7.79;81.64;100868.97;4861189;29;20057;-73
2023/10/15 01:21:58;;;;;;;3.75;0.70;;;;;;;7.69;81.80;100872.78;4860875;29;20056;-73
2023/10/15 01:25:24;;;;;;;6.35;1.20;;;;;;;7.67;82.36;100875.44;4860879;29;20113;-73
2023/10/15 01:28:37;;;;;;;7.65;1.50;;;;;;;7.61;82.97;100880.00;4861023;29;20418;-73
2023/10/15 01:31:51;;;;;;;6.50;1.67;;;;;;;7.53;83.51;100877.66;4860777;29;20102;-72
2023/10/15 01:34:59;;;;;;;5.30;1.40;;;;;;;7.42;82.30;100874.56;4860962;29;20064;-72
2023/10/15 01:38:19;;;;;;;8.75;1.63;;;;;;;7.42;82.55;100878.00;4860665;29;20052;-72
2023/10/15 01:41:25;;;;;;;6.22;1.50;;;;;;;7.38;82.45;100878.19;4860475;29;20105;-72
2023/10/15 01:44:30;;;;;;;6.57;1.20;;;;;;;7.48;82.65;100870.91;4860600;29;20121;-72
2023/10/15 01:47:35;;;;;;;7.10;1.60;;;;;;;7.38;82.74;100873.81;4860841;29;20056;-72
2023/10/15 01:51:16;;;;;;;8.50;1.60;;;;;;;7.49;82.07;100876.06;4860773;29;20129;-72
2023/10/15 01:54:09;;;;;;;8.00;1.83;;;;;;;7.43;82.74;100871.06;4860472;29;20044;-72
2023/10/15 01:57:15;;;;;;;6.50;1.40;;;;;;;7.41;82.61;100862.47;4848849;29;20056;-72
2023/10/15 02:00:37;;;;;;;6.63;1.40;;;;;;;7.33;82.48;100872.28;4860513;29;20137;-73
2023/10/15 02:03:41;;;;;;;8.15;1.50;;;;;;;7.29;82.22;100875.88;4860337;29;20558;-73
2023/10/15 02:06:44;;;;;;;;;;;;;;;7.25;81.67;100872.53;4849285;29;20047;-72
2023/10/15 02:09:47;;;;;;;3.67;0.90;;;;;;;7.25;82.60;100876.91;4860060;29;19927;-72
2023/10/15 02:13:03;;;;;;;8.05;1.25;;;;;;;7.19;82.59;100878.78;4860157;29;20052;-72
2023/10/15 02:16:09;;;;;;;7.78;1.33;;;;;;;7.15;82.63;100879.78;4860223;29;20567;-72
2023/10/15 02:19:15;;;;;;;7.03;1.05;;;;;;;7.04;83.09;100874.06;4860128;29;20052;-72
2023/10/15 02:22:21;;;;;;;7.85;1.50;;;;;;;7.10;82.48;100871.28;4860076;29;20080;-72
2023/10/15 02:25:27;;;;;;;5.97;1.17;;;;;;;7.09;81.95;100874.78;4848740;29;20049;-72
2023/10/15 02:28:35;;;;;;;8.88;2.65;;;;;;;7.03;82.62;100872.38;4860125;29;20072;-73
2023/10/15 02:31:46;;;;;;;4.72;1.60;;;;;;;7.08;83.16;100870.47;4848646;29;20057;-73
2023/10/15 02:34:52;;;;;;;6.57;1.42;;;;;;;7.06;82.39;100876.63;4860078;29;20097;-73
2023/10/15 02:37:58;;;;;;;7.95;1.85;;;;;;;7.07;82.21;100878.31;4862734;29;20053;-73
2023/10/15 02:41:06;;;;;;;4.40;1.52;;;;;;;6.94;82.44;100883.91;4852237;29;20099;-73
2023/10/15 02:44:13;;;;;;;3.50;0.90;;;;;;;7.00;83.13;100877.69;4863749;29;20089;-73
2023/10/15 02:47:31;;;;;;;3.88;0.88;;;;;;;7.04;82.20;100871.47;4863673;29;20133;-72
2023/10/15 02:50:35;;;;;;;5.13;1.10;;;;;;;6.87;82.78;100882.41;4863616;29;20776;-72
2023/10/15 02:53:50;;;;;;;;;;;;;;;6.90;82.84;100882.31;4864266;29;20067;-72
2023/10/15 02:56:56;;;;;;;4.25;1.58;;;;;;;6.93;82.50;100886.56;4863623;29;19927;-72
2023/10/15 03:00:11;;;;;;;4.90;1.75;;;;;;;6.90;82.37;100887.50;4852226;29;20185;-72
2023/10/15 03:03:16;;;;;;;4.85;1.10;;;;;;;6.82;83.07;100884.28;4851853;29;20074;-72
2023/10/15 03:06:25;;;;;;;6.20;1.17;;;;;;;6.85;82.71;100880.75;4863387;29;20101;-72
2023/10/15 03:09:31;;;;;;;4.90;1.20;;;;;;;6.85;82.10;100880.75;4863047;29;20532;-72
2023/10/15 03:12:34;;;;;;;12.52;1.52;;;;;;;6.78;82.66;100876.66;4863185;29;20101;-72
2023/10/15 03:15:46;;;;;;;4.53;0.88;;;;;;;6.70;82.77;100882.94;4863271;29;20065;-72
2023/10/15 03:18:51;;;;;;;5.97;1.33;;;;;;;6.68;82.92;100889.91;4863009;29;20573;-72
2023/10/15 03:21:59;;;;;;;9.38;1.40;;;;;;;6.71;82.96;100887.22;4851516;29;20044;-72
2023/10/15 03:25:03;;;;;;;9.95;1.35;;;;;;;6.64;83.61;100880.53;4862953;29;20056;-72
2023/10/15 03:28:07;;;;;;;5.60;1.35;;;;;;;6.56;83.56;100885.09;4863088;29;20088;-72
2023/10/15 03:31:16;;;;;;;6.00;1.20;;;;;;;6.44;82.58;100894.09;4862842;29;20048;-72
2023/10/15 03:34:22;;;;;;;6.88;1.55;;;;;;;6.52;81.72;100889.53;4862833;29;20409;-72
2023/10/15 03:37:27;;;;;;;4.82;1.00;;;;;;;6.48;83.16;100890.53;4851303;29;20052;-72
2023/10/15 03:40:32;;;;;;;4.07;1.20;;;;;;;6.48;83.13;100890.53;4851504;29;20056;-73
2023/10/15 03:43:36;;;;;;;5.25;1.48;;;;;;;6.49;83.69;100893.97;4862581;29;20052;-72
2023/10/15 03:46:40;;;;;;;;;;;;;;;6.51;83.86;100894.78;4863026;29;20467;-72
2023/10/15 03:49:46;;;;;;;6.05;1.63;;;;;;;6.45;83.37;100893.22;4861530;29;19927;-72
2023/10/15 03:52:49;;;;;;;5.07;1.23;;;;;;;6.50;83.52;100893.06;4862710;29;20070;-72
2023/10/15 03:55:55;;;;;;;7.10;1.00;;;;;;;6.54;83.18;100894.69;4862468;29;20056;-72
2023/10/15 03:58:58;;;;;;;7.20;1.52;;;;;;;6.46;83.21;100891.47;4862431;29;20048;-72
2023/10/15 04:02:02;;;;;;;;;;;;;;;6.45;82.42;100889.78;4862771;29;20518;-72
2023/10/15 04:05:11;;;;;;;5.70;1.33;;;;;;;6.46;81.98;100892.31;4862453;29;19923;-72
2023/10/15 04:08:18;;;;;;;8.25;2.38;;;;;;;6.53;83.05;100898.16;4862308;29;20604;-72
2023/10/15 04:11:29;;;;;;;6.32;1.17;;;;;;;6.50;83.22;100900.84;4861935;29;20525;-72
2023/10/15 04:14:34;;;;;;;5.45;1.10;;;;;;;6.51;83.35;100894.78;4862236;29;20519;-72
2023/10/15 04:17:37;;;;;;;9.00;1.35;;;;;;;6.53;83.11;100898.16;4862227;29;20083;-72
2023/10/15 04:20:43;;;;;;;8.75;1.77;;;;;;;6.49;83.59;100892.22;4862117;29;20055;-73
2023/10/15 04:23:52;;;;;;;11.50;1.33;;;;;;;6.56;83.01;100895.47;4862041;29;20101;-72
2023/10/15 04:26:55;;;;;;;5.47;1.23;;;;;;;6.54;83.31;100886.91;4861985;29;20056;-72
2023/10/15 04:30:00;;;;;;;;;;;;;;;6.48;83.55;100893.13;4862654;29;20117;-73
2023/10/15 04:33:07;;;;;;;10.70;1.25;;;;;;;6.40;84.16;100891.63;4861947;29;20048;-73
2023/10/15 04:36:10;;;;;;;4.35;0.82;;;;;;;6.37;84.27;100889.13;4861865;29;20105;-73
2023/10/15 04:39:15;;;;;;;3.22;1.00;;;;;;;6.38;84.05;100883.03;4861818;29;20053;-73
2023/10/15 04:42:28;;;;;;;5.80;1.10;;;;;;;6.31;83.86;100889.31;4861786;29;20101;-73
2023/10/15 04:48:37;;;;;;;4.85;1.02;;;;;;;6.20;84.20;100890.47;4861549;29;20639;-73
2023/10/15 04:51:44;;;;;;;7.00;1.13;;;;;;;6.22;84.30;100888.69;4861688;29;20117;-73
2023/10/15 04:55:17;;;;;;;5.30;1.23;;;;;;;6.19;84.72;100882.69;4861347;29;20458;-73
2023/10/15 04:58:20;;;;;;;3.53;1.08;;;;;;;6.15;84.62;100881.94;4859542;29;20044;-73
2023/10/15 05:01:24;;;;;;;4.82;1.15;;;;;;;6.26;84.22;100882.50;4861253;29;20562;-73
2023/10/15 05:04:27;;;;;;;;;;;;;;;6.10;84.85;100883.84;4861852;29;20049;-74
2023/10/15 05:07:31;;;;;;;4.45;1.02;;;;;;;6.15;84.05;100886.28;4861352;29;20312;-74
2023/10/15 05:10:35;;;;;;;9.45;1.40;;;;;;;6.17;83.88;100887.94;4860981;29;20064;-73
2023/10/15 05:13:42;;;;;;;7.57;2.95;;;;;;;6.01;84.99;100886.69;4861200;29;20052;-73
2023/10/15 05:16:46;;;;;;;5.63;1.35;;;;;;;6.10;84.82;100894.22;4849867;29;20122;-73
2023/10/15 05:19:53;;;;;;;6.25;0.80;;;;;;;6.11;84.17;100898.50;4861056;29;20464;-73
2023/10/15 05:22:56;;;;;;;5.78;0.98;;;;;;;6.04;84.58;100902.19;4861018;29;20541;-73
2023/10/15 05:25:59;;;;;;;;;;;;;;;5.95;84.66;100898.06;4861257;29;20068;-74
2023/10/15 05:29:03;;;;;;;4.55;1.17;;;;;;;5.97;84.25;100898.91;4861051;29;19923;-73
2023/10/15 05:32:06;;;;;;;4.20;1.00;;;;;;;6.04;84.09;100913.41;4860724;29;20406;-73
2023/10/15 05:35:10;;;;;;;7.00;1.40;;;;;;;5.98;84.73;100903.19;4860545;29;20105;-74
2023/10/15 05:38:13;;;;;;;4.30;2.67;;;;;;;6.17;84.93;100900.94;4860689;29;20462;-74
2023/10/15 05:41:19;;;;;;;2.80;1.00;;;;;;;6.23;83.96;100898.16;4860838;29;20057;-75
2023/10/15 05:44:23;;;;;;;5.55;1.50;;;;;;;6.23;84.38;100894.72;4859944;29;20097;-75
2023/10/15 05:47:28;;;;;;;4.35;1.20;;;;;;;6.26;84.44;100897.25;4871599;29;20047;-75
2023/10/15 05:50:32;;;;;;;3.42;1.40;;;;;;;6.24;85.04;100907.66;4875700;29;20052;-75
2023/10/15 05:53:35;;;;;;;4.45;1.08;;;;;;;6.23;84.99;100908.56;4860094;29;20417;-75
2023/10/15 05:56:38;;;;;;;4.32;1.15;;;;;;;6.34;84.83;100913.44;4858932;29;20060;-75
2023/10/15 05:59:43;;;;;;;6.22;1.15;;;;;;;6.29;84.89;100905.78;4863090;29;20064;-73
2023/10/15 06:02:53;;;;;;;4.20;0.95;;;;;;;6.21;84.98;100920.72;4840595;29;20069;-74
2023/10/15 06:05:57;;;;;;;5.07;1.10;;;;;;;6.17;85.46;100937.28;4840713;29;20060;-73
2023/10/15 06:09:01;;;;;;;9.73;1.40;;;;;;;6.18;84.99;100932.94;4869597;29;20474;-73
2023/10/15 06:12:05;;;;;;;4.43;0.80;;;;;;;6.25;84.54;100924.97;4839954;29;20090;-73
2023/10/15 06:15:09;;;;;;;34.55;2.25;;;;;;;6.22;85.43;100934.56;4840477;29;20060;-72
2023/10/15 06:18:13;;;;;;;12.13;1.05;;;;;;;6.24;85.64;100927.56;4843070;29;20106;-72
2023/10/15 06:21:17;;;;;;;5.00;1.20;;;;;;;6.29;87.04;100943.91;4878322;29;20076;-73
2023/10/15 06:24:23;;;;;;;3.40;1.05;;;;;;;6.33;86.06;100942.06;4878188;29;20566;-74
2023/10/15 06:27:27;;;;;;;3.83;0.90;;;;;;;6.44;85.48;100934.81;4865769;29;20518;-74
2023/10/15 06:30:30;;;;;;;;;;;;;;;6.41;85.53;100937.47;4877645;29;20390;-75
2023/10/15 06:33:33;;;;;;;8.18;1.20;;;;;;;6.53;85.28;100944.94;4877495;29;19967;-76
2023/10/15 06:36:37;;;;;;;6.40;1.52;;;;;;;6.49;85.30;100945.94;4877129;29;20064;-74
2023/10/15 06:39:40;;;;;;;;;;;;;;;6.53;85.51;100950.97;4877833;29;20059;-74
2023/10/15 06:42:44;;;;;;;4.27;1.20;;;;;;;6.63;85.09;100954.16;4877276;29;19927;-74
2023/10/15 06:45:47;;;;;;;6.03;1.63;;;;;;;6.57;85.71;100951.72;4876745;29;20056;-74
2023/10/15 06:48:51;;;;;;;8.32;1.55;;;;;;;6.58;86.13;100953.47;4877201;29;20067;-74
2023/10/15 06:51:54;;;;;;;4.45;1.65;;;;;;;6.62;85.62;100960.25;4877062;29;20097;-73
2023/10/15 06:54:58;;;;;;;;;;;;;;;6.72;85.63;100964.28;4875406;29;20121;-73
2023/10/15 06:58:01;;;;;;;6.63;2.00;;;;;;;6.76;85.62;100970.25;4855343;29;20388;-73
2023/10/15 07:01:07;;;;;;;7.05;2.67;;;;;;;6.70;86.01;100971.28;4856226;29;20124;-73
2023/10/15 07:04:12;;;;;;;7.03;1.27;;;;;;;6.71;86.20;100962.59;4856219;29;20104;-74
2023/10/15 07:07:15;;;;;;;5.80;1.35;;;;;;;6.71;87.00;100965.19;4855452;29;20087;-74
2023/10/15 07:10:21;;;;;;;8.10;1.20;;;;;;;6.64;87.49;100968.03;4856110;29;20137;-74
2023/10/15 07:13:28;;;;;;;4.63;1.60;;;;;;;6.71;87.77;100960.00;4856950;29;20040;-72
2023/10/15 07:16:33;;;;;;;9.32;2.13;;;;;;;6.82;87.04;100956.22;4857189;29;20155;-72
2023/10/15 07:19:36;;;;;;;7.03;1.73;;;;;;;6.89;87.73;100963.81;4844051;29;20439;-71
2023/10/15 07:22:43;;;;;;;;;;;;;;;6.93;87.26;100968.00;4855367;29;20105;-72
2023/10/15 07:25:46;;;;;;;5.50;2.63;;;;;;;7.03;87.15;100975.53;4848449;29;19991;-73
2023/10/15 07:28:50;;;;;;;;;;;;;;;6.93;88.15;100970.63;4862698;29;20052;-71
2023/10/15 07:31:53;;;;;;;5.55;1.83;;;;;;;7.23;87.53;100968.81;4861703;29;20433;-71
2023/10/15 07:34:57;;;;;;;9.23;1.90;;;;;;;7.40;86.86;100973.50;4843539;29;20100;-70
2023/10/15 07:38:04;;;;;;;;;;;;;;;7.43;86.90;100973.41;4843546;29;20086;-70
2023/10/15 07:41:09;;;;;;;8.85;2.55;;;;;;;7.22;87.44;100972.31;4843606;29;19924;-72
2023/10/15 07:44:14;;;;;;;8.90;2.00;;;;;;;7.45;87.34;100983.75;4843433;29;20118;-71
2023/10/15 07:47:18;;;;;;;5.93;1.95;;;;;;;7.55;86.99;100987.75;4843613;29;20110;-71
2023/10/15 07:50:27;;;;;;;9.98;2.30;;;;;;;7.46;87.16;100986.28;4841581;29;20056;-73
2023/10/15 07:53:34;;;;;;;5.90;1.90;;;;;;;7.70;87.49;100983.81;4850536;29;20043;-74
2023/10/15 07:56:38;;;;;;;;;;;;;;;7.80;86.58;100990.41;4851092;29;20211;-74
2023/10/15 07:59:43;;;;;;;8.32;1.77;;;;;;;7.96;86.55;100995.94;4862046;29;19942;-75
2023/10/15 08:02:48;;;;;;;10.00;1.98;;;;;;;8.20;86.86;101004.69;4877505;29;20060;-73
2023/10/15 08:05:52;;;;;;;6.35;2.17;;;;;;;8.20;87.22;101002.09;4872986;29;20047;-74
2023/10/15 08:08:55;;;;;;;8.05;2.30;;;;;;;8.22;87.24;101010.66;4831462;29;20096;-75
2023/10/15 08:11:59;;;;;;;8.52;2.30;;;;;;;8.34;88.14;101006.81;4842903;29;20636;-74
2023/10/15 08:15:03;;;;;;;5.15;1.88;;;;;;;8.45;87.91;101015.09;4842787;29;20118;-74
2023/10/15 08:18:06;;;;;;;8.15;3.25;;;;;;;8.08;87.36;101032.00;4842842;29;20060;-74
2023/10/15 08:21:11;;;;;;;;;;;;;;;8.04;83.84;101030.41;4842705;29;20088;-74
2023/10/15 08:24:15;;;;;;;10.13;2.50;;;;;;;7.93;83.40;101019.47;4842578;29;19977;-73
2023/10/15 08:27:18;;;;;;;7.68;2.15;;;;;;;7.83;82.55;101024.16;4842570;29;20049;-73
2023/10/15 08:30:21;;;;;;;8.38;1.40;;;;;;;8.17;88.65;101023.03;4858365;29;20100;-64
2023/10/15 08:33:24;;;;;;;;;;;;;;;8.09;81.25;101018.06;4871687;29;20049;-72
2023/10/15 08:36:28;;;;;;;11.23;3.53;;;;;;;8.16;80.52;101032.56;4860586;29;19999;-72
2023/10/15 08:39:33;;;;;;;7.15;1.90;;;;;;;8.38;78.93;101027.50;4860622;29;20064;-72
2023/10/15 08:42:46;;;;;;;5.80;2.35;;;;;;;8.42;77.98;101030.00;4860693;29;20101;-72
2023/10/15 08:45:51;;;;;;;7.97;1.98;;;;;;;8.49;78.86;101027.13;4861267;29;20135;-72
2023/10/15 08:48:54;;;;;;;6.63;1.98;;;;;;;8.51;78.34;101024.47;4859482;29;20093;-73
2023/10/15 08:51:58;;;;;;;;;;;;;;;8.60;77.55;101032.81;4858264;29;20052;-72
2023/10/15 08:55:06;;;;;;;9.63;2.42;;;;;;;8.39;77.85;101025.75;4859349;29;19922;-71
2023/10/15 08:58:10;;;;;;;6.72;1.40;;;;;;;8.41;77.25;101028.31;4858998;29;20121;-71
2023/10/15 09:01:14;;;;;;;6.68;1.75;;;;;;;8.46;76.98;101027.25;4857736;29;20052;-70
2023/10/15 09:04:18;;;;;;;4.70;1.80;;;;;;;8.41;76.89;101029.16;4859874;29;20104;-72
2023/10/15 09:07:23;;;;;;;10.18;1.77;;;;;;;8.23;77.80;101035.84;4859367;29;20063;-71
2023/10/15 09:10:26;;;;;;;7.63;1.77;;;;;;;8.36;78.03;101028.44;4859121;29;20741;-72
2023/10/15 09:13:29;;;;;;;;;;;;;;;8.31;77.13;101038.16;4859934;29;20134;-71
2023/10/15 09:16:33;;;;;;;7.20;1.48;;;;;;;8.63;76.26;101029.25;4858830;29;20405;-72
2023/10/15 09:20:03;;;;;;;6.85;1.92;;;;;;;8.55;76.24;101034.75;4857996;29;20162;-86
2023/10/15 09:23:07;;;;;;;3.90;1.60;;;;;;;8.51;77.30;101037.50;4856816;29;20082;-82
2023/10/15 09:26:10;;;;;;;;;;;;;;;8.60;75.92;101042.38;4857995;29;20056;-82
2023/10/15 09:29:21;;;;;;;4.90;1.35;;;;;;;8.74;75.96;101052.31;4858236;29;19931;-76
2023/10/15 09:32:24;;;;;;;6.25;1.52;;;;;;;8.81;75.50;101049.44;4856885;29;20477;-80
2023/10/15 09:35:55;;;;;;;5.60;1.45;;;;;;;9.03;74.30;101040.78;4848264;29;20056;-79
2023/10/15 09:39:04;;;;;;;8.23;1.92;;;;;;;9.60;73.28;101049.91;4858527;29;20048;-70
2023/10/15 09:42:09;;;;;;;4.60;1.42;;;;;;;9.67;70.45;101040.09;4858063;29;20078;-69
2023/10/15 09:45:18;;;;;;;5.20;1.30;;;;;;;9.62;68.83;101050.69;4856668;29;20089;-70
2023/10/15 09:48:25;;;;;;;6.25;1.50;;;;;;;9.47;69.95;101053.91;4858101;29;20131;-70
2023/10/15 09:51:32;;;;;;;6.75;1.50;;;;;;;9.51;70.21;101055.50;4854592;29;20051;-69
2023/10/15 09:54:37;;;;;;;6.20;1.55;;;;;;;9.70;72.60;101056.47;4857995;29;20048;-70
2023/10/15 09:57:40;;;;;;;8.38;1.15;;;;;;;9.37;70.04;101058.63;4858102;29;20101;-69
2023/10/15 10:04:23;;;;;;;4.45;1.10;;;;;;;9.92;69.58;101053.84;4858784;29;20379;-70
2023/10/15 10:07:47;;;;;;;6.90;1.25;;;;;;;9.96;69.83;101042.34;4856710;29;20177;-72
2023/10/15 10:11:16;;;;;;;7.40;1.65;;;;;;;9.79;69.46;101057.84;4856998;29;20129;-72
2023/10/15 10:14:49;;;;;;;5.38;1.70;;;;;;;10.04;69.13;101049.00;4858556;29;20115;-71
2023/10/15 10:17:53;;;;;;;5.32;1.48;;;;;;;10.32;70.98;101053.97;4857487;29;20505;-74
2023/10/15 10:21:00;;;;;;;4.32;1.40;;;;;;;10.46;69.84;101049.84;4857792;29;20176;-75
2023/10/15 10:24:08;;;;;;;6.57;1.33;;;;;;;10.09;69.37;101060.13;4858695;29;20403;-75
2023/10/15 10:27:16;;;;;;;4.10;1.27;;;;;;;9.99;71.47;101068.34;4858675;29;20060;-76
2023/10/15 10:30:49;;;;;;;6.43;1.70;;;;;;;9.80;74.39;101075.22;4861668;29;20124;-75
2023/10/15 10:33:54;;;;;;;6.80;1.63;;;;;;;9.74;76.57;101083.31;4856115;29;20085;-74
2023/10/15 10:36:57;;;;;;;3.40;0.93;;;;;;;9.62;76.95;101091.63;4853542;29;20043;-76
2023/10/15 10:40:01;;;;;;;3.63;0.80;;;;;;;9.45;76.38;101103.56;4857838;29;20128;-77
2023/10/15 10:43:15;;;;;;;;;;;;;;;9.19;76.55;101112.41;4859089;29;20444;-77
2023/10/15 10:46:22;;;;;;;4.15;1.23;;;;;;;9.23;75.97;101118.34;4856622;29;19967;-75
2023/10/15 10:49:39;;;;;;;4.15;1.20;;;;;;;9.18;77.75;101120.25;4856425;29;20544;-77
2023/10/15 10:52:44;;;;;;;3.30;0.77;;;;;;;8.80;78.72;101132.91;4856117;29;20177;-75
2023/10/15 10:56:03;;;;;;;4.13;0.80;;;;;;;8.63;79.95;101122.25;4856454;29;20044;-75
2023/10/15 10:59:08;;;;;;;2.42;0.90;;;;;;;8.97;80.07;101127.13;4859035;29;20056;-76
2023/10/15 11:02:13;;;;;;;2.67;1.00;;;;;;;8.87;82.23;101112.69;4860808;29;20049;-76
2023/10/15 11:05:17;;;;;;;2.13;0.60;;;;;;;8.88;80.43;101107.44;4861686;29;20062;-76
2023/10/15 11:08:22;;;;;;;3.55;0.85;;;;;;;9.36;78.18;101119.59;4858928;29;20101;-76
2023/10/15 11:11:26;;;;;;;2.78;0.50;;;;;;;9.34;77.25;101121.38;4861533;29;20152;-77
2023/10/15 11:14:29;;;;;;;;;;;;;;;9.52;76.53;101117.25;4862271;29;20048;-77
2023/10/15 11:17:32;;;;;;;2.67;0.90;;;;;;;9.64;77.30;101118.53;4861889;29;20457;-69
2023/10/15 11:20:36;;;;;;;3.03;0.70;;;;;;;9.22;77.11;101111.41;4857325;29;20060;-78
2023/10/15 11:23:39;;;;;;;1.80;0.45;;;;;;;9.07;77.59;101112.84;4844754;29;20078;-77
2023/10/15 11:26:44;;;;;;;2.88;0.73;;;;;;;8.89;78.65;101109.13;4859930;29;20468;-77
2023/10/15 11:29:48;;;;;;;2.72;0.50;;;;;;;9.20;76.28;101108.88;4860760;29;20117;-77
2023/10/15 11:32:51;;;;;;;1.60;0.40;;;;;;;9.22;75.00;101103.56;4861306;29;20094;-75
2023/10/15 11:35:55;;;;;;;;;;;;;;;9.68;73.43;101097.47;4859629;29;20165;-77
2023/10/15 11:38:59;;;;;;;4.63;0.73;;;;;;;10.15;72.52;101089.47;4858369;29;19922;-79
2023/10/15 11:42:07;;;;;;;2.78;0.50;;;;;;;10.37;72.75;101099.91;4861032;29;20844;-79
2023/10/15 11:45:17;;;;;;;2.70;0.80;;;;;;;10.12;71.71;101099.19;4861283;29;20052;-78
2023/10/15 11:48:21;;;;;;;4.95;0.70;;;;;;;10.65;72.11;101103.94;4860926;29;20049;-79
2023/10/15 11:51:25;;;;;;;;;;;;;;;10.79;71.51;101096.34;4861536;29;20141;-79
2023/10/15 11:54:32;;;;;;;3.38;0.73;;;;;;;11.10;69.67;101095.84;4859242;29;19972;-78
2023/10/15 11:57:39;;;;;;;3.03;0.70;;;;;;;11.14;68.33;101091.31;4855810;29;20064;-76
2023/10/15 12:00:47;;;;;;;7.00;2.47;;;;;;;10.81;68.28;101094.50;4859499;29;20052;-77
2023/10/15 12:03:56;;;;;;;4.53;1.27;;;;;;;10.62;69.03;101110.16;4858631;29;20205;-78
2023/10/15 12:07:03;;;;;;;2.83;1.45;;;;;;;10.66;69.16;101105.66;4860180;29;20093;-80
2023/10/15 12:10:14;;;;;;;2.35;0.75;;;;;;;11.30;67.18;101102.78;4848560;29;20121;-78
2023/10/15 12:13:18;;;;;;;2.22;0.60;;;;;;;11.00;66.55;101105.00;4858945;29;20048;-75
2023/10/15 12:16:22;;;;;;;4.35;1.10;;;;;;;10.68;66.55;101096.81;4859591;29;20113;-76
2023/10/15 12:19:25;;;;;;;3.15;0.82;;;;;;;10.59;67.66;101094.63;4859758;29;20048;-76
2023/10/15 12:22:29;;;;;;;3.28;0.82;;;;;;;10.52;67.21;101102.78;4860093;29;20080;-80
2023/10/15 12:25:37;;;;;;;4.75;1.00;;;;;;;10.53;73.28;101105.34;4859515;29;20063;-67
2023/10/15 12:28:46;;;;;;;3.58;0.85;;;;;;;10.37;66.62;101110.38;4859079;29;20055;-71
2023/10/15 12:31:52;;;;;;;3.00;0.77;;;;;;;10.33;65.68;101107.94;4859948;29;20068;-72
2023/10/15 12:34:55;;;;;;;2.92;0.85;;;;;;;10.13;66.42;101100.88;4858514;29;20109;-71
2023/10/15 12:38:02;;;;;;;4.20;0.90;;;;;;;10.22;66.57;101100.50;4858672;29;20049;-72
2023/10/15 12:41:09;;;;;;;5.13;0.90;;;;;;;10.54;66.40;101099.19;4858805;29;20120;-70
2023/10/15 12:44:14;;;;;;;2.95;0.90;;;;;;;10.17;66.83;101105.06;4859906;29;20118;-72
2023/10/15 12:47:17;;;;;;;4.60;0.90;;;;;;;10.34;66.12;101107.00;4859061;29;20041;-71
2023/10/15 12:50:20;;;;;;;;;;;;;;;10.91;65.22;101116.75;4859022;29;20071;-69
2023/10/15 12:53:26;;;;;;;4.28;0.73;;;;;;;10.68;63.75;101127.34;4858907;29;19923;-72
2023/10/15 12:56:30;;;;;;;2.53;0.75;;;;;;;11.05;63.19;101117.91;4859574;29;20101;-72
2023/10/15 12:59:34;;;;;;;3.45;1.20;;;;;;;11.72;61.60;101109.53;4857705;29;20128;-70
2023/10/15 13:02:38;;;;;;;2.75;0.75;;;;;;;11.75;62.24;101109.41;4857714;29;20048;-74
2023/10/15 13:05:42;;;;;;;2.97;0.77;;;;;;;11.14;63.06;101117.50;4847160;29;20237;-77
2023/10/15 13:08:46;;;;;;;;;;;;;;;10.38;65.58;101127.75;4859358;29;20440;-69
2023/10/15 13:11:49;;;;;;;;;;;;;;;10.25;67.23;101123.91;4841516;29;19935;-67
2023/10/15 13:14:51;;;;;;;2.92;0.60;;;;;;;10.00;68.08;101127.50;4840764;29;20315;-69
2023/10/15 13:17:56;;;;;;;5.95;0.90;;;;;;;10.11;68.00;101132.28;4839363;29;20049;-69
2023/10/15 13:20:59;;;;;;;4.90;1.05;;;;;;;10.02;69.43;101140.53;4839568;29;20133;-69
2023/10/15 13:24:03;;;;;;;4.00;0.77;;;;;;;10.09;70.43;101146.34;4839664;29;20048;-69
2023/10/15 13:27:07;;;;;;;4.72;1.30;;;;;;;10.36;69.93;101145.25;4840471;29;20121;-69
2023/10/15 13:30:17;;;;;;;3.88;1.23;;;;;;;10.84;68.61;101145.84;4840544;29;20363;-70
2023/10/15 13:33:20;;;;;;;5.18;1.80;;;;;;;10.73;68.83;101138.47;4841008;29;20108;-69
2023/10/15 13:36:24;;;;;;;8.65;2.35;;;;;;;11.13;67.05;101139.31;4840143;29;20476;-67
2023/10/15 13:39:28;;;;;;;;;;;;;;;11.36;67.04;101146.16;4841481;29;20045;-69
2023/10/15 13:42:32;;;;;;;6.43;2.13;;;;;;;11.72;65.34;101146.22;4840785;29;20029;-72
2023/10/15 13:45:37;;;;;;;17.75;4.75;;;;;;;11.07;65.86;101158.78;4840925;29;20056;-70
2023/10/15 13:48:42;;;;;;;12.32;4.22;;;;;;;10.39;68.67;101155.56;4840425;29;20423;-72
2023/10/15 13:51:46;;;;;;;6.47;1.42;;;;;;;10.20;68.22;101168.50;4830002;29;20084;-72
2023/10/15 13:54:50;;;;;;;4.68;1.35;;;;;;;10.43;67.75;101157.16;4840817;29;20041;-71
2023/10/15 13:57:55;;;;;;;4.05;1.58;;;;;;;10.42;64.33;101160.69;4840784;29;20052;-72
2023/10/15 14:01:01;;;;;;;7.47;1.20;;;;;;;10.33;65.70;101162.81;4841082;29;20159;-72
2023/10/15 14:04:09;;;;;;;5.20;1.70;;;;;;;10.81;64.91;101157.28;4824496;29;20070;-72
2023/10/15 14:07:14;;;;;;;2.72;1.38;;;;;;;10.98;64.52;101145.25;4828227;29;20517;-72
2023/10/15 14:10:20;;;;;;;4.82;1.10;;;;;;;10.51;66.10;101153.38;4847466;29;20161;-73
2023/10/15 14:13:27;;;;;;;9.77;4.57;;;;;;;11.05;65.60;101154.53;4847328;29;20482;-72
2023/10/15 14:16:31;;;;;;;6.28;2.25;;;;;;;10.80;64.80;101166.06;4857215;29;20086;-72
2023/10/15 14:19:45;;;;;;;6.40;2.05;;;;;;;10.73;66.72;101162.00;4858139;29;20139;-72
2023/10/15 14:22:57;;;;;;;4.82;1.73;;;;;;;10.91;66.83;101170.81;4869435;29;20118;-72
2023/10/15 14:26:01;;;;;;;2.47;0.70;;;;;;;10.73;67.48;101175.09;4848117;29;20100;-72
2023/10/15 14:29:07;;;;;;;4.93;1.30;;;;;;;11.30;66.48;101173.47;4859685;29;20105;-72
2023/10/15 14:32:11;;;;;;;3.42;1.20;;;;;;;11.20;67.95;101168.69;4859561;29;20147;-72
2023/10/15 14:35:21;;;;;;;4.95;1.55;;;;;;;11.25;66.37;101169.34;4852053;29;20052;-72
2023/10/15 14:38:26;;;;;;;5.13;1.17;;;;;;;11.23;65.36;101176.41;4852091;29;20083;-72
2023/10/15 14:41:31;;;;;;;7.13;1.02;;;;;;;11.38;66.78;101179.19;4863373;29;20662;-73
2023/10/15 14:44:39;;;;;;;6.18;1.55;;;;;;;10.88;67.40;101186.66;4863231;29;20069;-73
2023/10/15 14:47:43;;;;;;;4.93;1.40;;;;;;;10.80;67.22;101184.38;4864028;29;20489;-74
2023/10/15 14:50:47;;;;;;;2.78;0.85;;;;;;;10.71;68.44;101203.91;4862781;29;20093;-73